Flight Track Log - Related Links

Times and Time Zones

All times are in EDT time to prevent confusion due to time zone crossing. See the UPS1337 flight status page for this flight to view local times or setup timezone preferences in your user account.

Time Position Orientation Groundspeed Altitude Reporting Facility
EDT Latitude Longitude Course Direction KTS MPH feet Rate Location/Type
Fri 11:55:45 PM 35.8967 -78.7767 264° West 168 193 1,500  Level Washington Center
Fri 11:56:26 PM 35.9325 -78.7678 11° North 225 259 2,900 2,257 Climbing Washington Center
Fri 11:57:26 PM 35.9514 -78.8431 287° West 288 331 5,300 2,414 Climbing Washington Center
Sat 12:05:31 AM 35.7973 -79.8946 253° West 24,900 2,416 Climbing FlightAware ADS-B (NZFP)
Sat 12:06:00 AM 36.3038 -79.8339 253° West  Level Estimated
Sat 12:06:15 AM 35.8367 -79.9972 295° West 451 519 26,600  Level FlightAware ADS-B (NZFP)
Sat 12:06:53 AM 35.8676 -80.0774 296° West 447 514 28,000 1,950 Climbing FlightAware ADS-B (NZFP)
Sat 12:07:35 AM 35.9084 -80.1817 296° West 450 518 29,200 1,683 Climbing FlightAware ADS-B (NZFP)
Sat 12:08:15 AM 35.9438 -80.2715 296° West 449 517 30,300 1,792 Climbing FlightAware ADS-B (NZFP)
Sat 12:08:52 AM 35.9777 -80.3578 296° West 442 509 31,500 1,378 Climbing FlightAware ADS-B (NZFP)
Sat 12:09:29 AM 36.0073 -80.4332 296° West 443 510 32,000 370 Climbing FlightAware ADS-B (NZFP)
Sat 12:10:13 AM 36.0505 -80.5437 296° West 447 514 32,000  Level FlightAware ADS-B (NZFP)
Sat 12:10:56 AM 36.0881 -80.6405 296° West 442 509 32,000  Level FlightAware ADS-B (NZFP)
Sat 12:11:36 AM 36.1236 -80.7322 296° West 439 505 32,000  Level FlightAware ADS-B (NZFP)
Sat 12:12:12 AM 36.1522 -80.8061 296° West 439 505 32,000  Level FlightAware ADS-B (NZFP)
Sat 12:12:54 AM 36.1915 -80.9079 295° West 439 505 32,000  Level FlightAware ADS-B (NZFP)
Sat 12:13:33 AM 36.2254 -80.9959 295° West 441 507 32,000  Level FlightAware ADS-B (NZFP)
Sat 12:14:10 AM 36.2530 -81.0678 295° West 440 506 32,000  Level FlightAware ADS-B (NZFP)
Sat 12:14:50 AM 36.2929 -81.1723 295° West 439 505 32,000  Level FlightAware ADS-B (NZFP)
Sat 12:16:56 AM 36.4012 -81.4566 295° West 436 502 32,000  Level FlightAware ADS-B (NZFP)
Sat 12:17:27 AM 36.4222 -81.5078 295° West 441 507 32,000  Level Atlanta Center
Sat 12:18:27 AM 36.4708 -81.6431 294° West 441 507 32,000  Level Atlanta Center
Sat 12:19:27 AM 36.5214 -81.7783 295° West 441 507 32,000  Level Atlanta Center
Sat 12:20:27 AM 36.5717 -81.9139 295° West 441 507 32,000  Level Atlanta Center
Sat 12:21:27 AM 36.6239 -82.0497 296° West 436 502 32,000  Level Atlanta Center
Sat 12:22:27 AM 36.6742 -82.1856 295° West 436 502 32,000  Level Atlanta Center
Sat 12:23:50 AM 36.7436 -82.3736 295° West 439 505 32,000  Level Indianapolis Center
Sat 12:24:50 AM 36.8033 -82.5361 295° West 440 506 32,000  Level Indianapolis Center
Sat 12:25:51 AM 36.8539 -82.6747 295° West 440 506 32,000  Level Indianapolis Center
Sat 12:26:52 AM 36.9061 -82.8189 294° West 439 505 32,000  Level Indianapolis Center
Sat 12:27:52 AM 36.9544 -82.9517 295° West 439 505 32,000  Level Indianapolis Center
Sat 12:28:53 AM 37.0011 -83.0814 294° West 440 506 32,000  Level Indianapolis Center
Sat 12:29:54 AM 37.0517 -83.2225 294° West 441 507 32,000 -812 Level Indianapolis Center
Sat 12:35:54 AM 37.3623 -84.1023 294° West 444 511 26,300 -1,154 Descending FlightAware ADS-B
Sat 12:36:55 AM 37.4116 -84.2450 294° West 437 503 23,900 -2,380 Descending FlightAware ADS-B
Sat 12:37:55 AM 37.4596 -84.3832 293° West 427 491 21,500 -2,350 Descending FlightAware ADS-B
Sat 12:38:55 AM 37.5047 -84.5150 293° West 408 470 19,200 -2,420 Descending FlightAware ADS-B
Sat 12:39:54 AM 37.5488 -84.6435 293° West 396 456 16,700 -2,471 Descending FlightAware ADS-B
Sat 12:40:54 AM 37.5903 -84.7650 293° West 384 442 14,300 -2,333 Descending FlightAware ADS-B
Sat 12:41:42 AM 37.6219 -84.8580 293° West 373 429 12,500 -1,884 Descending FlightAware ADS-B
Sat 12:42:55 AM 37.6827 -84.9929 312° West 343 395 10,500 -1,306 Descending FlightAware ADS-B
Sat 12:44:55 AM 37.7886 -85.1642 295° West 291 335 8,300 -1,167 Descending FlightAware ADS-B
Sat 12:45:55 AM 37.8231 -85.2562 297° West 288 331 7,000 -1,200 Descending FlightAware ADS-B
Sat 12:46:55 AM 37.8640 -85.3405 302° West 287 330 5,900 -1,059 Descending FlightAware ADS-B
Sat 12:47:54 AM 37.9068 -85.4265 302° West 283 326 4,900 -1,000 Descending FlightAware ADS-B
Sat 12:48:55 AM 37.9486 -85.5121 301° West 279 321 3,900 -893 Descending FlightAware ADS-B
Sat 12:49:55 AM 37.9897 -85.5873 316° Northwest 255 293 3,100 -700 Descending FlightAware ADS-B
Sat 12:50:55 AM 38.0370 -85.6434 317° Northwest 219 252 2,500 -450 Descending FlightAware ADS-B
Sat 12:51:55 AM 38.0795 -85.6921 321° Northwest 189 217 2,200 -678 Descending FlightAware ADS-B
Sat 12:52:50 AM 38.1227 -85.7094 342° North 157 181 1,200 -986 Descending FlightAware ADS-B
Sat 12:53:08 AM 38.1296 -85.7119 345° North 159 183 1,000 -667 Descending FlightAware ADS-B
Sat 01:01:00 AM 38.1667 -85.7333 208° Southwest  Level FlightAware Approximate

Login

Don't have an account? Register now (free) for customized features, flight alerts, and more!